Peter R. Cresswell — VCBZ — position and weather

sailwx.info

Track history (hours):
 
Tides and Currents Weather Stations Pressure Air Temp Water Temp Dewpoint Dewpoint Depression Visibility Wind Speed Wind Dir Waves Ship Positions

Peter R. Cresswell

ex Algowest

Last reported at 2016-May-20 13:33 UTC. Time now 2016-May-25 01:21 UTC.
Position N 45°31' W 073°33'.

Length 219.2 m; beam 23.2 m; draft 8.7 m.

Type: Ship. MMSI: 316001697.

Date/timePositionNaut miles runAvg speedWind from/ knotsBaromVisibWave heightAir tempDewpointWater temp
2016-May-20 13:33N 45°31' W 073°33'0 0.0
2016-May-20 12:33N 45°31' W 073°33'0 0.0
2016-May-20 11:32N 45°31' W 073°33'2 1.7
2016-May-20 10:31N 45°30' W 073°31'1 0.7
2016-May-20 09:33N 45°29' W 073°31'4 3.8
2016-May-20 08:33N 45°26' W 073°30'3 2.9
2016-May-20 07:33N 45°24' W 073°34'2 1.8
2016-May-20 06:33N 45°24' W 073°37'5 5.2
2016-May-20 05:33N 45°24' W 073°44'8 7.9
2016-May-20 04:33N 45°20' W 073°54'2 1.7
2016-May-20 03:33N 45°19' W 073°55'1 0.8
2016-May-20 02:33N 45°18' W 073°56'1 1.3
2016-May-20 01:33N 45°17' W 073°56'4 3.7
2016-May-20 00:33N 45°14' W 073°60'126 9.5
2016-May-19 11:11N 44°03' W 076°26'5 7.5
2016-May-19 10:34N 44°07' W 076°23'0 0.0
2016-May-19 09:34N 44°07' W 076°23'0 0.0
2016-May-19 08:34N 44°07' W 076°23'0 0.0
2016-May-19 07:34N 44°07' W 076°23'1 1.0
2016-May-19 06:34N 44°06' W 076°24'1 1.0
2016-May-19 05:34N 44°07' W 076°23'1 1.0
2016-May-19 04:34N 44°06' W 076°24'6 6.5
2016-May-19 03:34N 44°00' W 076°28'128 7.1
2016-May-18 09:34N 43°15' W 079°13'2 2.0
2016-May-18 08:27N 43°13' W 079°13'2 1.3
2016-May-18 07:15N 43°12' W 079°12'4 0.7
2016-May-18 02:16N 43°08' W 079°12'0 0.4
2016-May-18 01:28N 43°08' W 079°12'  
Track history (hours):
 
Tides and Currents Weather Stations Pressure Air Temp Water Temp Dewpoint Dewpoint Depression Visibility Wind Speed Wind Dir Waves Ship Positions

Peter R. Cresswell

ex Algowest

Last reported at 2016-May-20 13:33 UTC. Time now 2016-May-25 01:21 UTC.
Position N 45°31' W 073°33'.

Length 219.2 m; beam 23.2 m; draft 8.7 m.

Type: Ship. MMSI: 316001697.

Date/timePositionNaut miles runAvg speedWind from/ knotsBaromVisibWave heightAir tempDewpointWater temp
2016-May-20 13:33N 45°31' W 073°33'0 0.0
2016-May-20 12:33N 45°31' W 073°33'0 0.0
2016-May-20 11:32N 45°31' W 073°33'2 1.7
2016-May-20 10:31N 45°30' W 073°31'1 0.7
2016-May-20 09:33N 45°29' W 073°31'4 3.8
2016-May-20 08:33N 45°26' W 073°30'3 2.9
2016-May-20 07:33N 45°24' W 073°34'2 1.8
2016-May-20 06:33N 45°24' W 073°37'5 5.2
2016-May-20 05:33N 45°24' W 073°44'8 7.9
2016-May-20 04:33N 45°20' W 073°54'2 1.7
2016-May-20 03:33N 45°19' W 073°55'1 0.8
2016-May-20 02:33N 45°18' W 073°56'1 1.3
2016-May-20 01:33N 45°17' W 073°56'4 3.7
2016-May-20 00:33N 45°14' W 073°60'126 9.5
2016-May-19 11:11N 44°03' W 076°26'5 7.5
2016-May-19 10:34N 44°07' W 076°23'0 0.0
2016-May-19 09:34N 44°07' W 076°23'0 0.0
2016-May-19 08:34N 44°07' W 076°23'0 0.0
2016-May-19 07:34N 44°07' W 076°23'1 1.0
2016-May-19 06:34N 44°06' W 076°24'1 1.0
2016-May-19 05:34N 44°07' W 076°23'1 1.0
2016-May-19 04:34N 44°06' W 076°24'6 6.5
2016-May-19 03:34N 44°00' W 076°28'128 7.1
2016-May-18 09:34N 43°15' W 079°13'2 2.0
2016-May-18 08:27N 43°13' W 079°13'2 1.3
2016-May-18 07:15N 43°12' W 079°12'4 0.7
2016-May-18 02:16N 43°08' W 079°12'0 0.4
2016-May-18 01:28N 43°08' W 079°12'  

Dump ship's entire track history